Wichita Falls, Texas
Current Conditions -  °F | °C
As of 4:15 AM on Thursday 23 Oct 2014 (Local Time) from KCWC Reporting Station
Overcast Overcast  
Wind Chill: 65°   Ceiling: 7000
Heat Index: 65°   Visibility: 10mi
Dew Point: 60°   Wind: 6mph
Humidity: 84%   Direction: 150°SSE
Pressure: 30.1"   Gusts: NA
Location:  33.91°N, 98.5°W
Report Text: KCWC 230915Z AUTO 15005KT 10SM OVC070 19/16 A3010 RMK AO2 T01860158
Loading
Personal Weather Stations






























Interactive Weather Map New forecast layout! Learn more

10-Day Weather Forecast

Advertisements
Track Severe Weather on mobile